Kailua Kona, HI

5:00 AM HST on July 28, 2014 (GMT -1000)
Kona International At Keahole (PHKO) Elev 43 ft | 19.74 °N, 156.05 °W | Change Station

Current weather conditions updated 7 minutes ago

Mostly Cloudy
Mostly Cloudy
80 °F
Feels Like 84 °F
N
6
Wind Variable Wind from WSW

Today is forecast to be Cooler than yesterday.

Today
High -- | Low -- °F
--% Chance of Precip.
Yesterday
High -- | Low -- °F
Precip. -- in
5:58 AM 7:02 PM
Waxing Crescent, 3% visible
Pressure 29.96 in
Visibility 10.0 miles
Clouds Mostly Cloudy 2300 ft
Mostly Cloudy 2800 ft
Heat Index 84 °F
Dew Point 72 °F
Humidity 76%
Rainfall 0.00 in
Snow Depth Not available.
UV 0 out of 12
Pollen Not available.
Air Quality Not available.
Flu Activity Not available.
METAR PHKO 281453Z AUTO 24005KT 10SM BKN023 BKN028 27/22 A2996 RMK AO2 SLP146 T02670222 55000 TSNO

More Conditions Fewer Conditions

Pressure 29.96 in
Visibility 10.0 miles
Clouds Mostly Cloudy 2300 ft
Mostly Cloudy 2800 ft
Heat Index 84 °F
Dew Point 72 °F
Humidity 76%
Rainfall 0.00 in
Snow Depth Not available.
UV 0 out of 12
Pollen Not available.
Air Quality Not available.
Flu Activity Not available.
METAR PHKO 281453Z AUTO 24005KT 10SM BKN023 BKN028 27/22 A2996 RMK AO2 SLP146 T02670222 55000 TSNO

More Conditions Fewer Conditions

10-Day Weather Forecast

Almanac

Astronomy

Jul. 28, 2014 Rise Set
Actual Time 5:58 AM HST 7:02 PM HST
Civil Twilight 5:35 AM HST 7:26 PM HST
Nautical Twilight 5:07 AM HST 7:53 PM HST
Astronomical Twilight 4:38 AM HST 8:22 PM HST
Moon 7:29 AM HST 8:14 PM HST
Length of Visible Light 13h 50m
Length of Day
13h 03m
Tomorrow will be 0m 46s shorter.
Waxing Crescent, 3% of the Moon is Illuminated
Today
Waxing Crescent
Aug 3
First Quarter
Aug 10
Full
Aug 17
Last Quarter
Aug 25
New

Today's Extremes

State Highs State Lows

Community

WunderPhotos

Upload Photos

1,738,370 photos uploaded!

Nearby

Snow Depth

Station Depth Elevation
No new snow has been reported.

Earthquake Activity

City Distance Mag. Time & Date
No recent earthquake activity has been reported nearby.
Minimum magnitude displayed is 2.5.

Coastal Water Temperatures

Place Temperature
No Stations Reporting

Nearby Weather Stations

Station Location Temp. Heat Index Dew Point Humidity Wind Precip. Elev Updated Type
Kona Palisades, Kailua-Kona, HI 73.5 °F 72 °F 69 °F 86% ESE  at  2.0 mph 0.00 in / hr 1007 ft 4:45 AM HST Normal
Waikoloa Village, Waikoloa, HI 72.8 °F 75 °F 63 °F 71% East  at  4.0 mph 0.00 in / hr 920 ft 4:30 AM HST Normal
Waikoloa Village, Waikoloa, HI 73.0 °F 74 °F 65 °F 76% ESE  at  5.8 mph 0.00 in / hr 1007 ft 4:59 AM HST Normal
Eleele Street, Waikoloa, HI 72.5 °F 73 °F 66 °F 79% East  at  3.0 mph 0.00 in / hr 1037 ft 5:00 AM HST Rapid Fire
Halemalu, Captain Cook, HI 68.5 °F - 68 °F 99% NE  at  0.0 mph 0.00 in / hr 1700 ft 5:00 AM HST Rapid Fire

Show More Stations Show Fewer Stations